DLH4EV EDDF-EDDS
Flight info
| Callsign | DLH4EV |
|---|---|
| Flight time | 0h 24m |
| Altitude | 17000 |
| Route | ANEKI2L/18 ANEKI Y163 NEKLO Y171 INKAM N850 KRH T128 BADSO BADSO2A |
| Aircraft | A320/M-SDE3FGHIRWY/LB1 |
Departure
| Time | 2026-05-05 18:02 |
|---|---|
| Airport | Frankfurt Main Airport (EDDF) |
Arrival
| Time | 2026-05-05 18:26 |
|---|---|
| Airport | Stuttgart Airport (EDDS) |
| Time | Latitude | Longitude | Altitude | Speed | Heading |
|---|---|---|---|---|---|
| 2026-05-05 17:25 | 50.04416 | 8.56276 | 358 ft | 0 kts | 162° |
| 2026-05-05 17:43 | 50.04423 | 8.56272 | 356 ft | 3 kts | 162° |
| 2026-05-05 17:44 | 50.04442 | 8.56262 | 363 ft | 3 kts | 162° |
| 2026-05-05 17:44 | 50.04462 | 8.56254 | 360 ft | 2 kts | 167° |
| 2026-05-05 17:44 | 50.04479 | 8.56250 | 360 ft | 3 kts | 213° |
| 2026-05-05 17:44 | 50.04489 | 8.56267 | 359 ft | 1 kts | 249° |
| 2026-05-05 17:45 | 50.04487 | 8.56261 | 360 ft | 2 kts | 249° |
| 2026-05-05 17:45 | 50.04480 | 8.56232 | 360 ft | 3 kts | 249° |
| 2026-05-05 17:45 | 50.04473 | 8.56202 | 360 ft | 3 kts | 250° |
| 2026-05-05 17:45 | 50.04466 | 8.56173 | 358 ft | 3 kts | 250° |
| 2026-05-05 17:46 | 50.04459 | 8.56143 | 357 ft | 3 kts | 250° |
| 2026-05-05 17:46 | 50.04454 | 8.56120 | 359 ft | 1 kts | 250° |
| 2026-05-05 17:46 | 50.04453 | 8.56119 | 359 ft | 0 kts | 250° |
| 2026-05-05 17:49 | 50.04431 | 8.56047 | 359 ft | 10 kts | 229° |
| 2026-05-05 17:49 | 50.04373 | 8.56038 | 362 ft | 11 kts | 163° |
| 2026-05-05 17:50 | 50.04344 | 8.56054 | 358 ft | 0 kts | 159° |
| 2026-05-05 17:51 | 50.04275 | 8.56068 | 355 ft | 5 kts | 208° |
| 2026-05-05 17:51 | 50.04252 | 8.55993 | 359 ft | 14 kts | 251° |
| 2026-05-05 17:51 | 50.04219 | 8.55856 | 358 ft | 13 kts | 249° |
| 2026-05-05 17:51 | 50.04188 | 8.55730 | 357 ft | 12 kts | 250° |
| 2026-05-05 17:52 | 50.04160 | 8.55611 | 353 ft | 12 kts | 249° |
| 2026-05-05 17:52 | 50.04129 | 8.55483 | 353 ft | 12 kts | 250° |
| 2026-05-05 17:52 | 50.04102 | 8.55366 | 356 ft | 10 kts | 250° |
| 2026-05-05 17:52 | 50.04080 | 8.55275 | 361 ft | 10 kts | 249° |
| 2026-05-05 17:53 | 50.04050 | 8.55150 | 360 ft | 16 kts | 249° |
| 2026-05-05 17:53 | 50.04007 | 8.54970 | 359 ft | 16 kts | 250° |
| 2026-05-05 17:53 | 50.03968 | 8.54808 | 356 ft | 16 kts | 249° |
| 2026-05-05 17:53 | 50.03930 | 8.54647 | 354 ft | 16 kts | 249° |
| 2026-05-05 17:54 | 50.03900 | 8.54523 | 352 ft | 8 kts | 250° |
| 2026-05-05 17:54 | 50.03877 | 8.54428 | 350 ft | 11 kts | 249° |
| 2026-05-05 17:54 | 50.03845 | 8.54336 | 348 ft | 8 kts | 234° |
| 2026-05-05 17:54 | 50.03805 | 8.54241 | 347 ft | 13 kts | 244° |
| 2026-05-05 17:55 | 50.03764 | 8.54077 | 349 ft | 17 kts | 249° |
| 2026-05-05 17:55 | 50.03723 | 8.53902 | 343 ft | 17 kts | 250° |
| 2026-05-05 17:55 | 50.03682 | 8.53731 | 342 ft | 16 kts | 249° |
| 2026-05-05 17:55 | 50.03642 | 8.53570 | 338 ft | 15 kts | 248° |
| 2026-05-05 17:56 | 50.03616 | 8.53470 | 338 ft | 15 kts | 249° |
| 2026-05-05 17:56 | 50.03582 | 8.53327 | 336 ft | 14 kts | 250° |
| 2026-05-05 17:56 | 50.03551 | 8.53195 | 339 ft | 11 kts | 249° |
| 2026-05-05 17:56 | 50.03528 | 8.53100 | 334 ft | 7 kts | 250° |
| 2026-05-05 17:57 | 50.03508 | 8.53016 | 338 ft | 10 kts | 250° |
| 2026-05-05 17:57 | 50.03477 | 8.52894 | 337 ft | 13 kts | 246° |
| 2026-05-05 17:57 | 50.03444 | 8.52774 | 333 ft | 11 kts | 247° |
| 2026-05-05 17:57 | 50.03432 | 8.52726 | 332 ft | 0 kts | 250° |
| 2026-05-05 17:59 | 50.03427 | 8.52702 | 333 ft | 9 kts | 250° |
| 2026-05-05 17:59 | 50.03403 | 8.52604 | 333 ft | 8 kts | 242° |
| 2026-05-05 18:00 | 50.03384 | 8.52594 | 334 ft | 3 kts | 191° |
| 2026-05-05 18:00 | 50.03377 | 8.52594 | 336 ft | 0 kts | 180° |
| 2026-05-05 18:01 | 50.03348 | 8.52594 | 336 ft | 21 kts | 179° |
| 2026-05-05 18:01 | 50.02916 | 8.52597 | 333 ft | 98 kts | 180° |
| 2026-05-05 18:01 | 50.02022 | 8.52606 | 335 ft | 156 kts | 179° |
| 2026-05-05 18:01 | 50.00911 | 8.52613 | 957 ft | 158 kts | 181° |
| 2026-05-05 18:02 | 49.99786 | 8.52655 | 1653 ft | 168 kts | 179° |
| 2026-05-05 18:02 | 49.98549 | 8.52740 | 2085 ft | 189 kts | 180° |
| 2026-05-05 18:02 | 49.97149 | 8.52835 | 2473 ft | 214 kts | 179° |
| 2026-05-05 18:02 | 49.95601 | 8.52941 | 3173 ft | 227 kts | 179° |
| 2026-05-05 18:03 | 49.94017 | 8.53053 | 4152 ft | 228 kts | 179° |
| 2026-05-05 18:03 | 49.92427 | 8.53170 | 5156 ft | 229 kts | 179° |
| 2026-05-05 18:03 | 49.90824 | 8.53288 | 6122 ft | 232 kts | 179° |
| 2026-05-05 18:03 | 49.89204 | 8.53403 | 7019 ft | 235 kts | 180° |
| 2026-05-05 18:04 | 49.87560 | 8.53517 | 7925 ft | 238 kts | 180° |
| 2026-05-05 18:04 | 49.85893 | 8.53629 | 8856 ft | 241 kts | 180° |
| 2026-05-05 18:04 | 49.84206 | 8.53739 | 9784 ft | 244 kts | 180° |
| 2026-05-05 18:04 | 49.82493 | 8.53848 | 10626 ft | 248 kts | 180° |
| 2026-05-05 18:05 | 49.80758 | 8.53961 | 11465 ft | 252 kts | 181° |
| 2026-05-05 18:05 | 49.78985 | 8.54148 | 12129 ft | 266 kts | 172° |
| 2026-05-05 18:05 | 49.77182 | 8.55301 | 12466 ft | 296 kts | 153° |
| 2026-05-05 18:05 | 49.75336 | 8.56978 | 12764 ft | 320 kts | 152° |
| 2026-05-05 18:06 | 49.73364 | 8.58823 | 13048 ft | 343 kts | 152° |
| 2026-05-05 18:06 | 49.71969 | 8.60144 | 13427 ft | 351 kts | 151° |
| 2026-05-05 18:06 | 49.69184 | 8.62791 | 14351 ft | 358 kts | 151° |
| 2026-05-05 18:06 | 49.67025 | 8.64831 | 15116 ft | 360 kts | 151° |
| 2026-05-05 18:07 | 49.64875 | 8.66846 | 15875 ft | 363 kts | 151° |
| 2026-05-05 18:07 | 49.62734 | 8.68842 | 16541 ft | 366 kts | 151° |
| 2026-05-05 18:07 | 49.60524 | 8.70895 | 16775 ft | 366 kts | 151° |
| 2026-05-05 18:07 | 49.58340 | 8.72920 | 16831 ft | 366 kts | 151° |
| 2026-05-05 18:08 | 49.56160 | 8.74937 | 16836 ft | 366 kts | 151° |
| 2026-05-05 18:08 | 49.54008 | 8.76924 | 16834 ft | 365 kts | 151° |
| 2026-05-05 18:08 | 49.51794 | 8.78961 | 16833 ft | 365 kts | 152° |
| 2026-05-05 18:08 | 49.49618 | 8.80967 | 16836 ft | 365 kts | 151° |
| 2026-05-05 18:09 | 49.47442 | 8.82978 | 16834 ft | 365 kts | 151° |
| 2026-05-05 18:09 | 49.45260 | 8.84995 | 16831 ft | 365 kts | 151° |
| 2026-05-05 18:09 | 49.43083 | 8.87000 | 16832 ft | 365 kts | 152° |
| 2026-05-05 18:09 | 49.40901 | 8.89001 | 16829 ft | 365 kts | 152° |
| 2026-05-05 18:10 | 49.38718 | 8.90999 | 16830 ft | 365 kts | 152° |
| 2026-05-05 18:10 | 49.36535 | 8.93000 | 16830 ft | 365 kts | 152° |
| 2026-05-05 18:10 | 49.34357 | 8.94999 | 16832 ft | 365 kts | 151° |
| 2026-05-05 18:10 | 49.32182 | 8.96993 | 16769 ft | 363 kts | 151° |
| 2026-05-05 18:11 | 49.30028 | 8.98965 | 16377 ft | 358 kts | 152° |
| 2026-05-05 18:11 | 49.27905 | 9.00903 | 15995 ft | 354 kts | 152° |
| 2026-05-05 18:11 | 49.25791 | 9.02830 | 15614 ft | 352 kts | 152° |
| 2026-05-05 18:11 | 49.23688 | 9.04744 | 15235 ft | 351 kts | 152° |
| 2026-05-05 18:12 | 49.21598 | 9.06643 | 14863 ft | 349 kts | 152° |
| 2026-05-05 18:12 | 49.19512 | 9.08538 | 14506 ft | 348 kts | 152° |
| 2026-05-05 18:12 | 49.17437 | 9.10420 | 14141 ft | 346 kts | 152° |
| 2026-05-05 18:12 | 49.15370 | 9.12295 | 13786 ft | 345 kts | 152° |
| 2026-05-05 18:13 | 49.13308 | 9.14164 | 13402 ft | 344 kts | 153° |
| 2026-05-05 18:13 | 49.11262 | 9.16015 | 12967 ft | 340 kts | 153° |
| 2026-05-05 18:13 | 49.09241 | 9.17844 | 12551 ft | 335 kts | 153° |
| 2026-05-05 18:13 | 49.07269 | 9.19630 | 12160 ft | 324 kts | 153° |
| 2026-05-05 18:14 | 49.05365 | 9.21358 | 11750 ft | 313 kts | 153° |
| 2026-05-05 18:14 | 49.03519 | 9.23031 | 11348 ft | 304 kts | 153° |
| 2026-05-05 18:14 | 49.01725 | 9.24654 | 10954 ft | 296 kts | 153° |
| 2026-05-05 18:14 | 48.99967 | 9.26240 | 10562 ft | 292 kts | 153° |
| 2026-05-05 18:15 | 48.98352 | 9.28116 | 10176 ft | 295 kts | 137° |
| 2026-05-05 18:15 | 48.96999 | 9.30462 | 9790 ft | 292 kts | 134° |
| 2026-05-05 18:15 | 48.95719 | 9.32813 | 9435 ft | 285 kts | 134° |
| 2026-05-05 18:15 | 48.94468 | 9.35129 | 9129 ft | 281 kts | 134° |
| 2026-05-05 18:16 | 48.93242 | 9.37406 | 8862 ft | 276 kts | 134° |
| 2026-05-05 18:16 | 48.92042 | 9.39640 | 8600 ft | 270 kts | 134° |
| 2026-05-05 18:16 | 48.90873 | 9.41821 | 8346 ft | 265 kts | 134° |
| 2026-05-05 18:16 | 48.89725 | 9.43972 | 8089 ft | 260 kts | 134° |
| 2026-05-05 18:17 | 48.88595 | 9.46094 | 7824 ft | 257 kts | 134° |
| 2026-05-05 18:17 | 48.87479 | 9.48195 | 7581 ft | 255 kts | 134° |
| 2026-05-05 18:17 | 48.86350 | 9.50317 | 7330 ft | 254 kts | 134° |
| 2026-05-05 18:17 | 48.85246 | 9.52356 | 7080 ft | 252 kts | 138° |
| 2026-05-05 18:18 | 48.83892 | 9.53965 | 6837 ft | 246 kts | 152° |
| 2026-05-05 18:18 | 48.82448 | 9.55343 | 6665 ft | 245 kts | 154° |
| 2026-05-05 18:18 | 48.80980 | 9.56711 | 6508 ft | 244 kts | 154° |
| 2026-05-05 18:18 | 48.79533 | 9.58055 | 6337 ft | 244 kts | 154° |
| 2026-05-05 18:19 | 48.78037 | 9.59182 | 6153 ft | 235 kts | 173° |
| 2026-05-05 18:19 | 48.76493 | 9.59083 | 6049 ft | 214 kts | 206° |
| 2026-05-05 18:19 | 48.75292 | 9.57934 | 5983 ft | 198 kts | 222° |
| 2026-05-05 18:19 | 48.74284 | 9.56621 | 5887 ft | 184 kts | 227° |
| 2026-05-05 18:20 | 48.73749 | 9.54987 | 5734 ft | 172 kts | 266° |
| 2026-05-05 18:20 | 48.74036 | 9.53249 | 5436 ft | 171 kts | 284° |
| 2026-05-05 18:20 | 48.74187 | 9.51493 | 5029 ft | 168 kts | 266° |
| 2026-05-05 18:20 | 48.74047 | 9.49721 | 4625 ft | 166 kts | 258° |
| 2026-05-05 18:21 | 48.73798 | 9.48018 | 4393 ft | 166 kts | 255° |
| 2026-05-05 18:21 | 48.73509 | 9.46331 | 4172 ft | 165 kts | 254° |
| 2026-05-05 18:21 | 48.73206 | 9.44657 | 3947 ft | 165 kts | 253° |
| 2026-05-05 18:21 | 48.72896 | 9.42981 | 3727 ft | 166 kts | 253° |
| 2026-05-05 18:22 | 48.72581 | 9.41291 | 3512 ft | 168 kts | 254° |
| 2026-05-05 18:22 | 48.72263 | 9.39592 | 3287 ft | 168 kts | 253° |
| 2026-05-05 18:22 | 48.71945 | 9.37896 | 3060 ft | 167 kts | 253° |
| 2026-05-05 18:22 | 48.71626 | 9.36197 | 2834 ft | 168 kts | 253° |
| 2026-05-05 18:23 | 48.71305 | 9.34487 | 2617 ft | 167 kts | 253° |
| 2026-05-05 18:23 | 48.71006 | 9.32896 | 2400 ft | 148 kts | 253° |
| 2026-05-05 18:23 | 48.70735 | 9.31457 | 2193 ft | 138 kts | 253° |
| 2026-05-05 18:23 | 48.70474 | 9.30091 | 2010 ft | 135 kts | 253° |
| 2026-05-05 18:24 | 48.70214 | 9.28707 | 1853 ft | 138 kts | 254° |
| 2026-05-05 18:24 | 48.69954 | 9.27291 | 1714 ft | 140 kts | 254° |
| 2026-05-05 18:24 | 48.69689 | 9.25899 | 1538 ft | 135 kts | 253° |
| 2026-05-05 18:24 | 48.69432 | 9.24532 | 1358 ft | 134 kts | 253° |
| 2026-05-05 18:25 | 48.69184 | 9.23231 | 1287 ft | 114 kts | 254° |
| 2026-05-05 18:25 | 48.69059 | 9.22575 | 1287 ft | 81 kts | 253° |
| 2026-05-05 18:25 | 48.68889 | 9.21692 | 1287 ft | 58 kts | 255° |
| 2026-05-05 18:25 | 48.68787 | 9.21134 | 1288 ft | 52 kts | 253° |
| 2026-05-05 18:26 | 48.68692 | 9.20632 | 1286 ft | 47 kts | 254° |
| 2026-05-05 18:26 | 48.68690 | 9.20279 | 1287 ft | 30 kts | 280° |
| 2026-05-05 18:26 | 48.68724 | 9.20083 | 1287 ft | 13 kts | 293° |
| 2026-05-05 18:26 | 48.68753 | 9.20016 | 1285 ft | 0 kts | 312° |
| 2026-05-05 18:27 | 48.68758 | 9.20008 | 1285 ft | 5 kts | 312° |
| 2026-05-05 18:27 | 48.68782 | 9.19968 | 1285 ft | 6 kts | 312° |
| 2026-05-05 18:28 | 48.68888 | 9.19848 | 1288 ft | 9 kts | 294° |
| 2026-05-05 18:28 | 48.68863 | 9.19693 | 1285 ft | 19 kts | 253° |
| 2026-05-05 18:28 | 48.68826 | 9.19499 | 1287 ft | 18 kts | 253° |
| 2026-05-05 18:29 | 48.68822 | 9.19387 | 1289 ft | 6 kts | 328° |
| 2026-05-05 18:29 | 48.68860 | 9.19369 | 1289 ft | 5 kts | 344° |
| 2026-05-05 18:29 | 48.68878 | 9.19362 | 1287 ft | 0 kts | 345° |